createdAt,value
2023-04-29T00:00:29.064Z,24.51
2023-04-29T00:01:29.070Z,24.51
2023-04-29T00:02:31.184Z,24.52
2023-04-29T00:03:29.307Z,24.52
2023-04-29T00:04:29.231Z,24.51
2023-04-29T00:05:29.055Z,24.51
2023-04-29T00:06:29.333Z,24.51
2023-04-29T00:07:29.004Z,24.51
2023-04-29T00:08:29.019Z,24.49
2023-04-29T00:09:28.973Z,24.49
2023-04-29T00:10:28.965Z,24.51
2023-04-29T00:11:28.975Z,24.51
2023-04-29T00:12:28.974Z,24.49
2023-04-29T00:13:28.942Z,24.49
2023-04-29T00:14:28.957Z,24.51
2023-04-29T00:15:28.997Z,24.48
2023-04-29T00:16:29.031Z,24.51
2023-04-29T00:17:28.952Z,24.52
2023-04-29T00:18:28.922Z,24.52
2023-04-29T00:19:28.886Z,24.51
2023-04-29T00:20:28.926Z,24.49
2023-04-29T00:21:28.914Z,24.52
2023-04-29T00:22:28.892Z,24.49
2023-04-29T00:23:28.886Z,24.51
2023-04-29T00:24:28.877Z,24.51
2023-04-29T00:25:28.875Z,24.51
2023-04-29T00:26:29.277Z,24.52
2023-04-29T00:27:28.846Z,24.52
2023-04-29T00:28:28.843Z,24.51
2023-04-29T00:29:28.830Z,24.48
2023-04-29T00:30:28.830Z,24.49
2023-04-29T00:31:29.343Z,24.51
2023-04-29T00:32:28.834Z,24.49
2023-04-29T00:33:28.804Z,24.52
2023-04-29T00:34:28.800Z,24.48
2023-04-29T00:35:28.808Z,24.51
2023-04-29T00:36:28.797Z,24.52
2023-04-29T00:37:28.805Z,24.51
2023-04-29T00:38:28.789Z,24.48
2023-04-29T00:39:28.766Z,24.51
2023-04-29T00:40:28.758Z,24.46
2023-04-29T00:41:28.772Z,24.48
2023-04-29T00:42:28.762Z,24.48
2023-04-29T00:43:28.768Z,24.49
2023-04-29T00:44:28.730Z,24.51
2023-04-29T00:45:28.733Z,24.49
2023-04-29T00:46:28.734Z,24.51
2023-04-29T00:47:28.728Z,24.48
2023-04-29T00:48:28.700Z,24.52
2023-04-29T00:49:28.699Z,24.51
2023-04-29T00:50:28.664Z,24.51
2023-04-29T00:51:28.767Z,24.48
2023-04-29T00:52:28.670Z,24.48
2023-04-29T00:53:28.665Z,24.48
2023-04-29T00:54:28.651Z,24.49
2023-04-29T00:55:28.621Z,24.49
2023-04-29T00:56:28.764Z,24.51
2023-04-29T00:57:28.640Z,24.49
2023-04-29T00:58:28.614Z,24.48
2023-04-29T00:59:28.625Z,24.51
2023-04-29T01:00:28.580Z,24.49
2023-04-29T01:01:28.637Z,24.51
2023-04-29T01:02:28.904Z,24.51
2023-04-29T01:03:28.781Z,24.48
2023-04-29T01:04:28.702Z,24.49
2023-04-29T01:05:28.563Z,24.46
2023-04-29T01:06:28.777Z,24.49
2023-04-29T01:07:28.549Z,24.49
2023-04-29T01:08:28.509Z,24.49
2023-04-29T01:09:28.515Z,24.48
2023-04-29T01:10:28.553Z,24.49
2023-04-29T01:11:28.506Z,24.49
2023-04-29T01:12:28.515Z,24.49
2023-04-29T01:13:28.520Z,24.49
2023-04-29T01:14:28.493Z,24.48
2023-04-29T01:15:28.480Z,24.49
2023-04-29T01:16:28.513Z,24.49
2023-04-29T01:17:28.523Z,24.46
2023-04-29T01:18:28.453Z,24.48
2023-04-29T01:19:28.455Z,24.49
2023-04-29T01:20:28.473Z,24.46
2023-04-29T01:21:28.785Z,24.48
2023-04-29T01:22:28.444Z,24.46
2023-04-29T01:23:28.418Z,24.46
2023-04-29T01:24:28.411Z,24.49
2023-04-29T01:25:28.399Z,24.46
2023-04-29T01:26:28.411Z,24.48
2023-04-29T01:27:28.408Z,24.48
2023-04-29T01:28:28.439Z,24.48
2023-04-29T01:29:28.391Z,24.49
2023-04-29T01:30:28.394Z,24.46
2023-04-29T01:31:28.890Z,24.52
2023-04-29T01:32:28.379Z,24.48
2023-04-29T01:33:28.384Z,24.46
2023-04-29T01:34:28.369Z,24.49
2023-04-29T01:35:28.393Z,24.48
2023-04-29T01:36:28.801Z,24.46
2023-04-29T01:37:28.369Z,24.46
2023-04-29T01:38:28.311Z,24.48
2023-04-29T01:39:28.361Z,24.46
2023-04-29T01:40:28.301Z,24.48
2023-04-29T01:41:28.789Z,24.48
2023-04-29T01:42:28.341Z,24.48
2023-04-29T01:43:28.272Z,24.48
2023-04-29T01:44:28.294Z,24.46
2023-04-29T01:45:28.306Z,24.46
2023-04-29T01:46:28.337Z,24.49
2023-04-29T01:47:28.347Z,24.45
2023-04-29T01:48:28.256Z,24.46
2023-04-29T01:49:28.261Z,24.45
2023-04-29T01:50:28.237Z,24.48
2023-04-29T01:51:28.305Z,24.49
2023-04-29T01:52:28.202Z,24.48
2023-04-29T01:53:28.242Z,24.49
2023-04-29T01:54:28.222Z,24.45
2023-04-29T01:55:28.233Z,24.48
2023-04-29T01:56:28.213Z,24.48
2023-04-29T01:57:28.182Z,24.46
2023-04-29T01:58:28.223Z,24.45
2023-04-29T01:59:30.220Z,24.48
2023-04-29T02:00:28.195Z,24.46
2023-04-29T02:01:28.137Z,24.46
2023-04-29T02:02:28.209Z,24.48
2023-04-29T02:03:28.252Z,24.45
2023-04-29T02:04:28.194Z,24.48
2023-04-29T02:05:28.151Z,24.45
2023-04-29T02:06:28.140Z,24.48
2023-04-29T02:07:28.144Z,24.48
2023-04-29T02:08:28.110Z,24.45
2023-04-29T02:09:28.146Z,24.46
2023-04-29T02:10:28.126Z,24.45
2023-04-29T02:11:28.824Z,24.48
2023-04-29T02:12:28.105Z,24.46
2023-04-29T02:13:28.081Z,24.45
2023-04-29T02:14:28.090Z,24.43
2023-04-29T02:15:28.089Z,24.45
2023-04-29T02:16:28.374Z,24.46
2023-04-29T02:17:28.110Z,24.46
2023-04-29T02:18:28.056Z,24.46
2023-04-29T02:19:28.050Z,24.45
2023-04-29T02:20:28.047Z,24.45
2023-04-29T02:21:28.072Z,24.45
2023-04-29T02:22:28.013Z,24.46
2023-04-29T02:23:28.011Z,24.45
2023-04-29T02:24:28.078Z,24.48
2023-04-29T02:25:28.040Z,24.45
2023-04-29T02:26:28.322Z,24.45
2023-04-29T02:27:28.005Z,24.46
2023-04-29T02:28:27.981Z,24.45
2023-04-29T02:29:27.974Z,24.45
2023-04-29T02:30:27.940Z,24.45
2023-04-29T02:31:28.016Z,24.46
2023-04-29T02:32:27.985Z,24.48
2023-04-29T02:33:27.919Z,24.45
2023-04-29T02:34:27.921Z,24.45
2023-04-29T02:35:27.931Z,24.45
2023-04-29T02:36:27.896Z,24.48
2023-04-29T02:37:27.910Z,24.45
2023-04-29T02:38:27.881Z,24.45
2023-04-29T02:39:27.902Z,24.45
2023-04-29T02:40:27.871Z,24.43
2023-04-29T02:41:28.306Z,24.46
2023-04-29T02:42:27.872Z,24.46
2023-04-29T02:43:27.865Z,24.43
2023-04-29T02:44:27.855Z,24.45
2023-04-29T02:45:27.867Z,24.46
2023-04-29T02:46:27.903Z,24.43
2023-04-29T02:47:27.901Z,24.45
2023-04-29T02:48:27.840Z,24.45
2023-04-29T02:49:27.851Z,24.45
2023-04-29T02:50:27.840Z,24.46
2023-04-29T02:51:27.961Z,24.45
2023-04-29T02:52:27.901Z,24.45
2023-04-29T02:53:27.828Z,24.46
2023-04-29T02:54:27.911Z,24.43
2023-04-29T02:55:27.792Z,24.45
2023-04-29T02:56:27.771Z,24.45
2023-04-29T02:57:27.778Z,24.45
2023-04-29T02:58:27.746Z,24.46
2023-04-29T02:59:27.743Z,24.43
2023-04-29T03:00:27.769Z,24.46
2023-04-29T03:01:27.831Z,24.43
2023-04-29T03:02:27.812Z,24.43
2023-04-29T03:03:27.835Z,24.45
2023-04-29T03:04:27.835Z,24.45
2023-04-29T03:05:27.696Z,24.43
2023-04-29T03:06:27.713Z,24.42
2023-04-29T03:07:27.688Z,24.45
2023-04-29T03:08:27.670Z,24.43
2023-04-29T03:09:27.697Z,24.46
2023-04-29T03:10:27.680Z,24.46
2023-04-29T03:11:27.687Z,24.45
2023-04-29T03:12:27.714Z,24.45
2023-04-29T03:13:27.694Z,24.45
2023-04-29T03:14:27.623Z,24.45
2023-04-29T03:15:27.620Z,24.42
2023-04-29T03:16:27.665Z,24.45
2023-04-29T03:17:27.733Z,24.43
2023-04-29T03:18:27.622Z,24.45
2023-04-29T03:19:27.634Z,24.43
2023-04-29T03:20:27.634Z,24.45
2023-04-29T03:21:27.613Z,24.43
2023-04-29T03:22:27.576Z,24.45
2023-04-29T03:23:27.591Z,24.45
2023-04-29T03:24:27.575Z,24.45
2023-04-29T03:25:27.591Z,24.43
2023-04-29T03:26:27.585Z,24.46
2023-04-29T03:27:27.589Z,24.43
2023-04-29T03:28:27.547Z,24.46
2023-04-29T03:29:27.565Z,24.43
2023-04-29T03:30:27.530Z,24.43
2023-04-29T03:31:27.619Z,24.43
2023-04-29T03:32:27.559Z,24.43
2023-04-29T03:33:27.527Z,24.42
2023-04-29T03:34:27.486Z,24.42
2023-04-29T03:35:27.488Z,24.43
2023-04-29T03:36:27.501Z,24.45
2023-04-29T03:37:27.486Z,24.43
2023-04-29T03:38:27.482Z,24.42
2023-04-29T03:39:27.478Z,24.43
2023-04-29T03:40:27.458Z,24.42
2023-04-29T03:41:27.484Z,24.45
2023-04-29T03:42:27.433Z,24.43
2023-04-29T03:43:27.453Z,24.42
2023-04-29T03:44:27.762Z,24.42
2023-04-29T03:45:27.455Z,24.45
2023-04-29T03:46:27.443Z,24.42
2023-04-29T03:47:27.940Z,24.43
2023-04-29T03:48:27.397Z,24.45
2023-04-29T03:49:27.380Z,24.45
2023-04-29T03:50:27.434Z,24.40
2023-04-29T03:51:27.400Z,24.42
2023-04-29T03:52:27.384Z,24.42
2023-04-29T03:53:27.369Z,24.43
2023-04-29T03:54:27.374Z,24.43
2023-04-29T03:55:27.356Z,24.45
2023-04-29T03:56:27.333Z,24.42
2023-04-29T03:57:27.339Z,24.43
2023-04-29T03:58:27.356Z,24.43
2023-04-29T03:59:27.363Z,24.40
2023-04-29T04:00:27.321Z,24.40
2023-04-29T04:01:27.379Z,24.42
2023-04-29T04:02:27.566Z,24.43
2023-04-29T04:03:27.445Z,24.40
2023-04-29T04:04:27.519Z,24.40
2023-04-29T04:05:27.306Z,24.42
2023-04-29T04:06:27.297Z,24.45
2023-04-29T04:07:27.285Z,24.43
2023-04-29T04:08:27.262Z,24.42
2023-04-29T04:09:27.280Z,24.43
2023-04-29T04:10:27.271Z,24.43
2023-04-29T04:11:27.269Z,24.43
2023-04-29T04:12:27.235Z,24.43
2023-04-29T04:13:27.240Z,24.42
2023-04-29T04:14:27.246Z,24.40
2023-04-29T04:15:27.261Z,24.42
2023-04-29T04:16:27.236Z,24.42
2023-04-29T04:17:27.373Z,24.40
2023-04-29T04:18:27.189Z,24.40
2023-04-29T04:19:27.193Z,24.42
2023-04-29T04:20:27.196Z,24.40
2023-04-29T04:21:27.153Z,24.42
2023-04-29T04:22:27.218Z,24.42
2023-04-29T04:23:27.137Z,24.42
2023-04-29T04:24:27.154Z,24.40
2023-04-29T04:25:27.134Z,24.42
2023-04-29T04:26:27.127Z,24.42
2023-04-29T04:27:27.146Z,24.42
2023-04-29T04:28:27.121Z,24.43
2023-04-29T04:29:27.116Z,24.42
2023-04-29T04:30:27.094Z,24.43
2023-04-29T04:31:27.194Z,24.42
2023-04-29T04:32:27.149Z,24.43
2023-04-29T04:33:27.083Z,24.40
2023-04-29T04:34:27.078Z,24.40
2023-04-29T04:35:27.098Z,24.40
2023-04-29T04:36:27.086Z,24.42
2023-04-29T04:37:27.372Z,24.42
2023-04-29T04:38:27.049Z,24.39
2023-04-29T04:39:27.125Z,24.40
2023-04-29T04:40:27.039Z,24.43
2023-04-29T04:41:27.060Z,24.42
2023-04-29T04:42:27.349Z,24.39
2023-04-29T04:43:27.042Z,24.42
2023-04-29T04:44:27.024Z,24.42
2023-04-29T04:45:27.108Z,24.42
2023-04-29T04:46:27.083Z,24.42
2023-04-29T04:47:27.084Z,24.43
2023-04-29T04:48:26.986Z,24.39
2023-04-29T04:49:27.865Z,24.43
2023-04-29T04:50:26.971Z,24.42
2023-04-29T04:51:26.963Z,24.39
2023-04-29T04:52:26.991Z,24.43
2023-04-29T04:53:26.944Z,24.40
2023-04-29T04:54:26.969Z,24.40
2023-04-29T04:55:26.972Z,24.39
2023-04-29T04:56:26.927Z,24.42
2023-04-29T04:57:26.948Z,24.42
2023-04-29T04:58:26.899Z,24.40
2023-04-29T04:59:26.927Z,24.42
2023-04-29T05:00:26.923Z,24.42
2023-04-29T05:01:26.932Z,24.39
2023-04-29T05:02:27.008Z,24.42
2023-04-29T05:03:27.101Z,24.42
2023-04-29T05:04:27.022Z,24.40
2023-04-29T05:05:26.930Z,24.40
2023-04-29T05:06:26.871Z,24.39
2023-04-29T05:07:26.867Z,24.38
2023-04-29T05:08:26.844Z,24.40
2023-04-29T05:09:26.864Z,24.39
2023-04-29T05:10:26.843Z,24.39
2023-04-29T05:11:26.845Z,24.40
2023-04-29T05:12:26.885Z,24.40
2023-04-29T05:13:26.815Z,24.40
2023-04-29T05:14:26.811Z,24.42
2023-04-29T05:15:26.796Z,24.42
2023-04-29T05:16:26.813Z,24.43
2023-04-29T05:17:26.893Z,24.42
2023-04-29T05:18:26.775Z,24.42
2023-04-29T05:19:26.752Z,24.43
2023-04-29T05:20:26.744Z,24.42
2023-04-29T05:21:26.769Z,24.46
2023-04-29T05:22:26.767Z,24.43
2023-04-29T05:23:26.766Z,24.43
2023-04-29T05:24:26.769Z,24.43
2023-04-29T05:25:26.784Z,24.43
2023-04-29T05:26:26.739Z,24.42
2023-04-29T05:27:26.886Z,24.40
2023-04-29T05:28:28.189Z,24.43
2023-04-29T05:29:26.692Z,24.40
2023-04-29T05:30:26.697Z,24.42
2023-04-29T05:31:26.726Z,24.42
2023-04-29T05:32:26.721Z,24.43
2023-04-29T05:33:26.674Z,24.42
2023-04-29T05:34:26.696Z,24.45
2023-04-29T05:35:26.701Z,24.42
2023-04-29T05:36:26.712Z,24.42
2023-04-29T05:37:26.630Z,24.43
2023-04-29T05:38:26.657Z,24.42
2023-04-29T05:39:26.624Z,24.45
2023-04-29T05:40:26.628Z,24.42
2023-04-29T05:41:26.636Z,24.43
2023-04-29T05:42:26.638Z,24.45
2023-04-29T05:43:26.636Z,24.40
2023-04-29T05:44:26.599Z,24.45
2023-04-29T05:45:26.615Z,24.43
2023-04-29T05:46:26.685Z,24.42
2023-04-29T05:47:26.914Z,24.43
2023-04-29T05:48:26.598Z,24.45
2023-04-29T05:49:26.597Z,24.43
2023-04-29T05:50:26.558Z,24.42
2023-04-29T05:51:26.575Z,24.42
2023-04-29T05:52:26.563Z,24.45
2023-04-29T05:53:26.582Z,24.45
2023-04-29T05:54:26.567Z,24.43
2023-04-29T05:55:26.532Z,24.45
2023-04-29T05:56:26.541Z,24.43
2023-04-29T05:57:26.901Z,24.43
2023-04-29T05:58:26.502Z,24.45
2023-04-29T05:59:26.500Z,24.45
2023-04-29T06:00:26.509Z,24.46
2023-04-29T06:01:26.476Z,24.46
2023-04-29T06:02:27.003Z,24.45
2023-04-29T06:03:26.711Z,24.45
2023-04-29T06:04:26.642Z,24.45
2023-04-29T06:05:26.739Z,24.46
2023-04-29T06:06:26.541Z,24.45
2023-04-29T06:07:26.909Z,24.45
2023-04-29T06:08:26.412Z,24.46
2023-04-29T06:09:27.962Z,24.46
2023-04-29T06:10:26.393Z,24.46
2023-04-29T06:11:26.410Z,24.49
2023-04-29T06:12:26.456Z,24.51
2023-04-29T06:13:26.415Z,24.49
2023-04-29T06:14:26.397Z,24.51
2023-04-29T06:15:26.413Z,24.52
2023-04-29T06:16:26.417Z,24.54
2023-04-29T06:17:26.421Z,24.52
2023-04-29T06:18:26.398Z,24.51
2023-04-29T06:19:26.344Z,24.54
2023-04-29T06:20:26.341Z,24.52
2023-04-29T06:21:26.340Z,24.52
2023-04-29T06:22:26.341Z,24.54
2023-04-29T06:23:26.333Z,24.54
2023-04-29T06:24:26.293Z,24.51
2023-04-29T06:25:26.345Z,24.52
2023-04-29T06:26:26.311Z,24.52
2023-04-29T06:27:26.353Z,24.54
2023-04-29T06:28:26.279Z,24.52
2023-04-29T06:29:26.285Z,24.54
2023-04-29T06:30:26.266Z,24.54
2023-04-29T06:31:26.285Z,24.55
2023-04-29T06:32:26.274Z,24.56
2023-04-29T06:33:26.259Z,24.55
2023-04-29T06:34:26.260Z,24.54
2023-04-29T06:35:26.221Z,24.58
2023-04-29T06:36:26.244Z,24.59
2023-04-29T06:37:26.437Z,24.62
2023-04-29T06:38:26.245Z,24.60
2023-04-29T06:39:26.208Z,24.59
2023-04-29T06:40:26.185Z,24.58
2023-04-29T06:41:26.190Z,24.63
2023-04-29T06:42:26.412Z,24.60
2023-04-29T06:43:26.267Z,24.63
2023-04-29T06:44:26.178Z,24.66
2023-04-29T06:45:26.262Z,24.69
2023-04-29T06:46:26.359Z,24.67
2023-04-29T06:47:26.342Z,24.69
2023-04-29T06:48:26.410Z,24.69
2023-04-29T06:49:26.484Z,24.70
2023-04-29T06:50:26.549Z,24.72
2023-04-29T06:51:26.553Z,24.73
2023-04-29T06:52:26.914Z,24.74
2023-04-29T06:53:26.663Z,24.73
2023-04-29T06:54:26.710Z,24.73
2023-04-29T06:55:26.740Z,24.74
2023-04-29T06:56:26.861Z,24.77
2023-04-29T06:57:26.894Z,24.76
2023-04-29T06:58:26.936Z,24.76
2023-04-29T06:59:26.988Z,24.77
2023-04-29T07:00:27.056Z,24.77
2023-04-29T07:01:27.172Z,24.77
2023-04-29T07:02:27.279Z,24.79
2023-04-29T07:03:27.316Z,24.79
2023-04-29T07:04:27.345Z,24.79
2023-04-29T07:05:27.363Z,24.82
2023-04-29T07:06:27.443Z,24.82
2023-04-29T07:07:27.466Z,24.82
2023-04-29T07:08:27.549Z,24.82
2023-04-29T07:09:27.597Z,24.83
2023-04-29T07:10:27.672Z,24.79
2023-04-29T07:11:27.767Z,24.82
2023-04-29T07:12:27.792Z,24.79
2023-04-29T07:13:27.864Z,24.79
2023-04-29T07:14:27.929Z,24.77
2023-04-29T07:15:28.012Z,24.79
2023-04-29T07:16:28.139Z,24.77
2023-04-29T07:17:28.165Z,24.79
2023-04-29T07:18:28.184Z,24.79
2023-04-29T07:19:28.244Z,24.79
2023-04-29T07:20:28.319Z,24.79
2023-04-29T07:21:28.384Z,24.76
2023-04-29T07:22:28.433Z,24.77
2023-04-29T07:23:28.529Z,24.77
2023-04-29T07:24:28.532Z,24.76
2023-04-29T07:25:28.630Z,24.76
2023-04-29T07:26:28.704Z,24.76
2023-04-29T07:27:28.967Z,24.77
2023-04-29T07:28:28.826Z,24.77
2023-04-29T07:29:28.906Z,24.77
2023-04-29T07:30:28.927Z,24.76
2023-04-29T07:31:29.063Z,24.80
2023-04-29T07:32:29.092Z,24.79
2023-04-29T07:33:29.126Z,24.77
2023-04-29T07:34:29.172Z,24.76
2023-04-29T07:35:29.231Z,24.77
2023-04-29T07:36:29.303Z,24.79
2023-04-29T07:37:29.354Z,24.77
2023-04-29T07:38:29.437Z,24.79
2023-04-29T07:39:29.470Z,24.80
2023-04-29T07:40:29.549Z,24.79
2023-04-29T07:41:29.598Z,24.76
2023-04-29T07:42:29.710Z,24.79
2023-04-29T07:43:29.759Z,24.79
2023-04-29T07:44:29.822Z,24.80
2023-04-29T07:45:29.873Z,24.83
2023-04-29T07:46:29.979Z,24.80
2023-04-29T07:47:30.523Z,24.83
2023-04-29T07:48:30.046Z,24.83
2023-04-29T07:49:30.099Z,24.83
2023-04-29T07:50:30.200Z,24.86
2023-04-29T07:51:30.247Z,24.86
2023-04-29T07:52:30.448Z,24.91
2023-04-29T07:53:30.346Z,24.90
2023-04-29T07:54:30.425Z,24.90
2023-04-29T07:55:30.473Z,24.91
2023-04-29T07:56:30.519Z,24.90
2023-04-29T07:57:30.598Z,24.93
2023-04-29T07:58:30.681Z,24.93
2023-04-29T07:59:30.680Z,24.93
2023-04-29T08:00:30.728Z,24.95
2023-04-29T08:01:30.780Z,24.95
2023-04-29T08:02:31.044Z,24.95
2023-04-29T08:03:31.012Z,24.98
2023-04-29T08:04:31.059Z,24.97
2023-04-29T08:05:31.374Z,25.00
2023-04-29T08:06:31.060Z,25.00
2023-04-29T08:07:31.485Z,24.98
2023-04-29T08:08:31.153Z,25.01
2023-04-29T08:09:31.201Z,25.01
2023-04-29T08:10:31.258Z,25.04
2023-04-29T08:11:31.282Z,25.03
2023-04-29T08:12:31.302Z,25.03
2023-04-29T08:13:31.493Z,25.03
2023-04-29T08:14:31.437Z,25.04
2023-04-29T08:15:31.471Z,25.07
2023-04-29T08:16:31.559Z,25.04
2023-04-29T08:17:32.412Z,25.07
2023-04-29T08:18:31.585Z,25.07
2023-04-29T08:19:31.645Z,25.10
2023-04-29T08:20:31.670Z,25.07
2023-04-29T08:21:31.719Z,25.09
2023-04-29T08:22:31.752Z,25.10
2023-04-29T08:23:31.960Z,25.10
2023-04-29T08:24:31.821Z,25.10
2023-04-29T08:25:31.876Z,25.11
2023-04-29T08:26:31.934Z,25.10
2023-04-29T08:27:31.929Z,25.14
2023-04-29T08:28:32.521Z,25.14
2023-04-29T08:29:32.014Z,25.13
2023-04-29T08:30:32.087Z,25.14
2023-04-29T08:31:32.138Z,25.15
2023-04-29T08:32:32.296Z,25.17
2023-04-29T08:33:32.470Z,25.15
2023-04-29T08:34:32.223Z,25.17
2023-04-29T08:35:32.250Z,25.17
2023-04-29T08:36:32.286Z,25.18
2023-04-29T08:37:32.327Z,25.18
2023-04-29T08:38:32.495Z,25.21
2023-04-29T08:39:32.353Z,25.21
2023-04-29T08:40:32.440Z,25.21
2023-04-29T08:41:32.441Z,25.22
2023-04-29T08:42:32.446Z,25.24
2023-04-29T08:43:32.983Z,25.24
2023-04-29T08:44:32.540Z,25.27
2023-04-29T08:45:32.647Z,25.24
2023-04-29T08:46:32.672Z,25.27
2023-04-29T08:47:32.674Z,25.28
2023-04-29T08:48:33.117Z,25.27
2023-04-29T08:49:32.633Z,25.28
2023-04-29T08:50:32.720Z,25.30
2023-04-29T08:51:32.702Z,25.30
2023-04-29T08:52:32.750Z,25.28
2023-04-29T08:53:32.750Z,25.31
2023-04-29T08:54:32.838Z,25.32
2023-04-29T08:55:32.820Z,25.31
2023-04-29T08:56:32.863Z,25.31
2023-04-29T08:57:32.846Z,25.31
2023-04-29T08:58:32.894Z,25.31
2023-04-29T08:59:32.904Z,25.34
2023-04-29T09:00:33.056Z,25.35
2023-04-29T09:01:32.943Z,25.35
2023-04-29T09:02:33.071Z,25.34
2023-04-29T09:03:33.120Z,25.38
2023-04-29T09:04:33.036Z,25.37
2023-04-29T09:05:33.030Z,25.38
2023-04-29T09:06:33.050Z,25.38
2023-04-29T09:07:33.059Z,25.38
2023-04-29T09:08:33.510Z,25.41
2023-04-29T09:09:33.107Z,25.39
2023-04-29T09:10:33.109Z,25.42
2023-04-29T09:11:33.117Z,25.44
2023-04-29T09:12:33.118Z,25.42
2023-04-29T09:13:33.519Z,25.42
2023-04-29T09:14:33.176Z,25.42
2023-04-29T09:15:33.197Z,25.45
2023-04-29T09:16:33.324Z,25.44
2023-04-29T09:17:33.193Z,25.46
2023-04-29T09:18:33.475Z,25.45
2023-04-29T09:19:33.215Z,25.46
2023-04-29T09:20:33.209Z,25.45
2023-04-29T09:21:33.207Z,25.46
2023-04-29T09:22:33.265Z,25.46
2023-04-29T09:23:33.516Z,25.49
2023-04-29T09:24:33.287Z,25.48
2023-04-29T09:25:33.290Z,25.49
2023-04-29T09:26:33.327Z,25.49
2023-04-29T09:27:33.293Z,25.49
2023-04-29T09:28:33.503Z,25.50
2023-04-29T09:29:33.338Z,25.50
2023-04-29T09:30:33.341Z,25.50
2023-04-29T09:31:33.339Z,25.52
2023-04-29T09:32:33.384Z,25.53
2023-04-29T09:33:33.514Z,25.53
2023-04-29T09:34:33.323Z,25.52
2023-04-29T09:35:33.341Z,25.56
2023-04-29T09:36:33.354Z,25.56
2023-04-29T09:37:33.375Z,25.56
2023-04-29T09:38:33.334Z,25.55
2023-04-29T09:39:33.346Z,25.55
2023-04-29T09:40:40.459Z,25.58
2023-04-29T09:41:34.354Z,25.56
2023-04-29T09:42:33.348Z,25.58
2023-04-29T09:43:33.306Z,25.59
2023-04-29T09:44:34.617Z,25.58
2023-04-29T09:45:33.298Z,25.59
2023-04-29T09:46:33.401Z,25.58
2023-04-29T09:47:33.360Z,25.59
2023-04-29T09:48:33.312Z,25.59
2023-04-29T09:49:33.289Z,25.59
2023-04-29T09:50:33.262Z,25.61
2023-04-29T09:51:33.255Z,25.64
2023-04-29T09:52:33.242Z,25.65
2023-04-29T09:53:33.546Z,25.61
2023-04-29T09:54:33.256Z,25.64
2023-04-29T09:55:33.239Z,25.64
2023-04-29T09:56:33.246Z,25.64
2023-04-29T09:57:33.192Z,25.65
2023-04-29T09:58:33.525Z,25.62
2023-04-29T09:59:33.315Z,25.64
2023-04-29T10:00:33.182Z,25.61
2023-04-29T10:01:33.245Z,25.62
2023-04-29T10:02:33.222Z,25.58
2023-04-29T10:03:33.671Z,25.59
2023-04-29T10:04:33.220Z,25.59
2023-04-29T10:05:33.155Z,25.56
2023-04-29T10:06:33.143Z,25.59
2023-04-29T10:07:33.123Z,25.58
2023-04-29T10:08:33.147Z,25.56
2023-04-29T10:09:33.116Z,25.58
2023-04-29T10:10:33.137Z,25.59
2023-04-29T10:11:33.187Z,25.55
2023-04-29T10:12:33.138Z,25.55
2023-04-29T10:13:33.147Z,25.56
2023-04-29T10:14:33.165Z,25.53
2023-04-29T10:15:33.138Z,25.56
2023-04-29T10:16:33.166Z,25.52
2023-04-29T10:17:33.070Z,25.55
2023-04-29T10:18:33.122Z,25.56
2023-04-29T10:19:33.052Z,25.53
2023-04-29T10:20:33.070Z,25.56
2023-04-29T10:21:33.091Z,25.52
2023-04-29T10:22:33.050Z,25.52
2023-04-29T10:23:33.037Z,25.55
2023-04-29T10:24:33.018Z,25.53
2023-04-29T10:25:33.031Z,25.53
2023-04-29T10:26:33.035Z,25.55
2023-04-29T10:27:32.992Z,25.55
2023-04-29T10:28:32.983Z,25.55
2023-04-29T10:29:33.030Z,25.56
2023-04-29T10:30:33.019Z,25.59
2023-04-29T10:31:32.992Z,25.59
2023-04-29T10:32:43.457Z,25.61
2023-04-29T10:33:34.143Z,25.59
2023-04-29T10:34:32.929Z,25.58
2023-04-29T10:35:32.965Z,25.59
2023-04-29T10:36:32.916Z,25.56
2023-04-29T10:37:32.941Z,25.61
2023-04-29T10:38:32.918Z,25.58
2023-04-29T10:39:32.940Z,25.56
2023-04-29T10:40:32.907Z,25.55
2023-04-29T10:41:32.918Z,25.55
2023-04-29T10:42:32.907Z,25.56
2023-04-29T10:43:32.906Z,25.55
2023-04-29T10:44:32.902Z,25.53
2023-04-29T10:45:32.888Z,25.52
2023-04-29T10:46:32.908Z,25.52
2023-04-29T10:47:32.974Z,25.52
2023-04-29T10:48:33.055Z,25.53
2023-04-29T10:49:32.851Z,25.56
2023-04-29T10:50:32.852Z,25.52
2023-04-29T10:51:32.935Z,25.56
2023-04-29T10:52:32.830Z,25.56
2023-04-29T10:53:32.860Z,25.58
2023-04-29T10:54:32.818Z,25.58
2023-04-29T10:55:32.839Z,25.56
2023-04-29T10:56:32.797Z,25.56
2023-04-29T10:57:32.805Z,25.52
2023-04-29T10:58:32.839Z,25.58
2023-04-29T10:59:32.780Z,25.59
2023-04-29T11:00:32.791Z,25.55
2023-04-29T11:01:32.898Z,25.56
2023-04-29T11:02:32.840Z,25.53
2023-04-29T11:03:32.881Z,25.55
2023-04-29T11:04:32.814Z,25.53
2023-04-29T11:05:32.770Z,25.55
2023-04-29T11:06:32.756Z,25.53
2023-04-29T11:07:32.754Z,25.55
2023-04-29T11:08:32.764Z,25.55
2023-04-29T11:09:32.720Z,25.58
2023-04-29T11:10:32.745Z,25.58
2023-04-29T11:11:32.682Z,25.56
2023-04-29T11:12:32.749Z,25.58
2023-04-29T11:13:32.695Z,25.55
2023-04-29T11:14:32.717Z,25.55
2023-04-29T11:15:32.676Z,25.56
2023-04-29T11:16:32.724Z,25.55
2023-04-29T11:17:32.686Z,25.56
2023-04-29T11:18:32.701Z,25.55
2023-04-29T11:19:32.664Z,25.53
2023-04-29T11:20:32.657Z,25.55
2023-04-29T11:21:32.651Z,25.53
2023-04-29T11:22:32.638Z,25.52
2023-04-29T11:23:32.657Z,25.55
2023-04-29T11:24:32.609Z,25.52
2023-04-29T11:25:32.627Z,25.53
2023-04-29T11:26:32.611Z,25.53
2023-04-29T11:27:32.614Z,25.49
2023-04-29T11:28:32.603Z,25.50
2023-04-29T11:29:32.586Z,25.49
2023-04-29T11:30:32.555Z,25.52
2023-04-29T11:31:32.708Z,25.50
2023-04-29T11:32:32.628Z,25.50
2023-04-29T11:33:32.587Z,25.49
2023-04-29T11:34:32.536Z,25.48
2023-04-29T11:35:32.544Z,25.49
2023-04-29T11:36:32.537Z,25.48
2023-04-29T11:37:32.551Z,25.46
2023-04-29T11:38:32.530Z,25.48
2023-04-29T11:39:32.525Z,25.45
2023-04-29T11:40:32.498Z,25.45
2023-04-29T11:41:32.544Z,25.45
2023-04-29T11:42:32.476Z,25.46
2023-04-29T11:43:32.483Z,25.45
2023-04-29T11:44:32.496Z,25.42
2023-04-29T11:45:32.491Z,25.44
2023-04-29T11:46:32.557Z,25.42
2023-04-29T11:47:32.515Z,25.44
2023-04-29T11:48:32.445Z,25.44
2023-04-29T11:49:32.432Z,25.44
2023-04-29T11:50:32.430Z,25.42
2023-04-29T11:51:32.404Z,25.42
2023-04-29T11:52:32.416Z,25.42
2023-04-29T11:53:32.431Z,25.44
2023-04-29T11:54:32.422Z,25.42
2023-04-29T11:55:32.372Z,25.41
2023-04-29T11:56:32.391Z,25.42
2023-04-29T11:57:32.432Z,25.42
2023-04-29T11:58:32.432Z,25.41
2023-04-29T11:59:32.446Z,25.41
2023-04-29T12:00:32.416Z,25.41
2023-04-29T12:01:32.420Z,25.41
2023-04-29T12:02:32.695Z,25.39
2023-04-29T12:03:32.566Z,25.38
2023-04-29T12:04:32.596Z,25.39
2023-04-29T12:05:32.526Z,25.39
2023-04-29T12:06:32.502Z,25.39
2023-04-29T12:07:32.456Z,25.39
2023-04-29T12:08:32.451Z,25.39
2023-04-29T12:09:32.478Z,25.38
2023-04-29T12:10:32.480Z,25.39
2023-04-29T12:11:32.485Z,25.37
2023-04-29T12:12:32.497Z,25.38
2023-04-29T12:13:32.490Z,25.39
2023-04-29T12:14:32.503Z,25.38
2023-04-29T12:15:32.532Z,25.37
2023-04-29T12:16:32.611Z,25.37
2023-04-29T12:17:32.631Z,25.39
2023-04-29T12:18:32.573Z,25.37
2023-04-29T12:19:32.538Z,25.35
2023-04-29T12:20:32.607Z,25.38
2023-04-29T12:21:32.608Z,25.37
2023-04-29T12:22:32.612Z,25.35
2023-04-29T12:23:32.614Z,25.35
2023-04-29T12:24:32.603Z,25.37
2023-04-29T12:25:32.592Z,25.35
2023-04-29T12:26:32.673Z,25.37
2023-04-29T12:27:32.631Z,25.37
2023-04-29T12:28:32.667Z,25.38
2023-04-29T12:29:32.612Z,25.34
2023-04-29T12:30:32.672Z,25.35
2023-04-29T12:31:32.651Z,25.34
2023-04-29T12:32:32.668Z,25.37
2023-04-29T12:33:33.081Z,25.35
2023-04-29T12:34:32.641Z,25.37
2023-04-29T12:35:32.695Z,25.35
2023-04-29T12:36:32.680Z,25.37
2023-04-29T12:37:32.704Z,25.34
2023-04-29T12:38:32.722Z,25.32
2023-04-29T12:39:32.734Z,25.34
2023-04-29T12:40:32.746Z,25.35
2023-04-29T12:41:32.770Z,25.34
2023-04-29T12:42:32.752Z,25.32
2023-04-29T12:43:32.758Z,25.34
2023-04-29T12:44:32.758Z,25.32
2023-04-29T12:45:32.791Z,25.37
2023-04-29T12:46:32.911Z,25.32
2023-04-29T12:47:32.830Z,25.34
2023-04-29T12:48:33.455Z,25.34
2023-04-29T12:49:32.816Z,25.31
2023-04-29T12:50:32.860Z,25.34
2023-04-29T12:51:32.867Z,25.31
2023-04-29T12:52:34.630Z,25.32